Ide Min — PC8366 — position and weather

sailwx.info

Track history (hours):
 
Tides and Currents Weather Stations Pressure Air Temp Water Temp Dewpoint Dewpoint Depression Visibility Wind Speed Wind Dir Waves Ship Positions

Ide Min (Netherlands)

Ship's website: http://www.idemin.nl/english/english.html

Last reported at 2015-May-29 20:19 UTC. Time now 2015-May-30 00:31 UTC.
Position N 55°27' E 012°11'.

Length 40 m; draft 2.4 m.

MMSI: 244537000.

Date/timePositionNaut miles runAvg speedWind from/ knotsBaromVisibWave heightAir tempDewpointWater temp
2015-May-29 20:19N 55°27' E 012°11'0 0.0
2015-May-29 19:25N 55°27' E 012°11'0 0.0
2015-May-29 18:31N 55°27' E 012°11'2 2.3
2015-May-29 17:34N 55°27' E 012°15'6 6.5
2015-May-29 16:33N 55°24' E 012°25'7 6.7
2015-May-29 15:33N 55°17' E 012°29'7 6.4
2015-May-29 14:31N 55°11' E 012°31'6 6.2
2015-May-29 13:32N 55°05' E 012°32'8 6.8
2015-May-29 12:21N 54°57' E 012°36'25 6.0
2015-May-29 08:15N 54°38' E 012°08'3 4.7
2015-May-29 07:32N 54°36' E 012°04'6 5.8
2015-May-29 06:33N 54°32' E 011°56'2 1.9
2015-May-29 05:33N 54°34' E 011°56'0 0.0
2015-May-29 04:33N 54°34' E 011°56'0 0.0
2015-May-29 03:33N 54°34' E 011°56'0 0.0
2015-May-29 02:33N 54°34' E 011°56'0 0.0
2015-May-29 01:33N 54°34' E 011°56'0 0.0
2015-May-29 00:33N 54°34' E 011°56'0 0.0
2015-May-28 23:33N 54°34' E 011°56'0 0.0
2015-May-28 22:33N 54°34' E 011°56'0 0.0
2015-May-28 21:33N 54°34' E 011°56'0 0.0
2015-May-28 20:33N 54°34' E 011°56'0 0.0
2015-May-28 19:33N 54°34' E 011°56'4 4.0
2015-May-28 18:33N 54°31' E 011°52'6 6.3
2015-May-28 17:33N 54°30' E 011°42'7 6.8
2015-May-28 16:33N 54°30' E 011°30'6 6.4
2015-May-28 15:33N 54°32' E 011°20'6 6.2
2015-May-28 14:33N 54°34' E 011°09'6 6.3
2015-May-28 13:32N 54°34' E 010°58'6 6.3
2015-May-28 12:33N 54°33' E 010°48'7 7.4
2015-May-28 11:33N 54°33' E 010°35'5 5.3
2015-May-28 10:33N 54°31' E 010°27'6 6.1
2015-May-28 09:33N 54°28' E 010°17'7 6.7
2015-May-28 08:33N 54°23' E 010°11'1 1.3
2015-May-28 07:33N 54°22' E 010°09'0 0.0
2015-May-28 06:33N 54°22' E 010°09'0 0.0
2015-May-27 07:26N 54°22' E 010°09'  
Track history (hours):
 
Tides and Currents Weather Stations Pressure Air Temp Water Temp Dewpoint Dewpoint Depression Visibility Wind Speed Wind Dir Waves Ship Positions

Ide Min (Netherlands)

Ship's website: http://www.idemin.nl/english/english.html

Last reported at 2015-May-29 20:19 UTC. Time now 2015-May-30 00:31 UTC.
Position N 55°27' E 012°11'.

Length 40 m; draft 2.4 m.

MMSI: 244537000.

Date/timePositionNaut miles runAvg speedWind from/ knotsBaromVisibWave heightAir tempDewpointWater temp
2015-May-29 20:19N 55°27' E 012°11'0 0.0
2015-May-29 19:25N 55°27' E 012°11'0 0.0
2015-May-29 18:31N 55°27' E 012°11'2 2.3
2015-May-29 17:34N 55°27' E 012°15'6 6.5
2015-May-29 16:33N 55°24' E 012°25'7 6.7
2015-May-29 15:33N 55°17' E 012°29'7 6.4
2015-May-29 14:31N 55°11' E 012°31'6 6.2
2015-May-29 13:32N 55°05' E 012°32'8 6.8
2015-May-29 12:21N 54°57' E 012°36'25 6.0
2015-May-29 08:15N 54°38' E 012°08'3 4.7
2015-May-29 07:32N 54°36' E 012°04'6 5.8
2015-May-29 06:33N 54°32' E 011°56'2 1.9
2015-May-29 05:33N 54°34' E 011°56'0 0.0
2015-May-29 04:33N 54°34' E 011°56'0 0.0
2015-May-29 03:33N 54°34' E 011°56'0 0.0
2015-May-29 02:33N 54°34' E 011°56'0 0.0
2015-May-29 01:33N 54°34' E 011°56'0 0.0
2015-May-29 00:33N 54°34' E 011°56'0 0.0
2015-May-28 23:33N 54°34' E 011°56'0 0.0
2015-May-28 22:33N 54°34' E 011°56'0 0.0
2015-May-28 21:33N 54°34' E 011°56'0 0.0
2015-May-28 20:33N 54°34' E 011°56'0 0.0
2015-May-28 19:33N 54°34' E 011°56'4 4.0
2015-May-28 18:33N 54°31' E 011°52'6 6.3
2015-May-28 17:33N 54°30' E 011°42'7 6.8
2015-May-28 16:33N 54°30' E 011°30'6 6.4
2015-May-28 15:33N 54°32' E 011°20'6 6.2
2015-May-28 14:33N 54°34' E 011°09'6 6.3
2015-May-28 13:32N 54°34' E 010°58'6 6.3
2015-May-28 12:33N 54°33' E 010°48'7 7.4
2015-May-28 11:33N 54°33' E 010°35'5 5.3
2015-May-28 10:33N 54°31' E 010°27'6 6.1
2015-May-28 09:33N 54°28' E 010°17'7 6.7
2015-May-28 08:33N 54°23' E 010°11'1 1.3
2015-May-28 07:33N 54°22' E 010°09'0 0.0
2015-May-28 06:33N 54°22' E 010°09'0 0.0
2015-May-27 07:26N 54°22' E 010°09'  

Dump ship's entire track history